createdAt,value
2023-05-05T00:00:48.320Z,1004.4
2023-05-05T00:05:21.263Z,1004.4
2023-05-05T00:10:21.056Z,1004.4
2023-05-05T00:15:20.507Z,1004.3
2023-05-05T00:20:22.174Z,1004.2
2023-05-05T00:25:18.126Z,1004.4
2023-05-05T00:30:18.133Z,1004.3
2023-05-05T00:35:17.584Z,1004.2
2023-05-05T00:40:17.901Z,1004.2
2023-05-05T00:45:25.669Z,1004.1
2023-05-05T00:50:24.869Z,1004.1
2023-05-05T00:55:24.783Z,1004.2
2023-05-05T00:59:45.397Z,1004.2
2023-05-05T01:04:44.646Z,1004.2
2023-05-05T01:09:44.614Z,1004
2023-05-05T01:14:45.190Z,1004.1
2023-05-05T01:19:42.368Z,1004.2
2023-05-05T01:24:41.784Z,1004.2
2023-05-05T01:29:42.191Z,1004.2
2023-05-05T01:34:43.680Z,1004.3
2023-05-05T01:39:39.653Z,1004.3
2023-05-05T01:44:40.410Z,1004.3
2023-05-05T01:49:39.641Z,1004.4
2023-05-05T01:54:38.815Z,1004.4
2023-05-05T01:59:21.862Z,1004.3
2023-05-05T02:04:21.669Z,1004.4
2023-05-05T02:09:21.361Z,1004.5
2023-05-05T02:14:22.684Z,1004.5
2023-05-05T02:19:19.221Z,1004.6
2023-05-05T02:24:18.786Z,1004.6
2023-05-05T02:29:18.248Z,1004.5
2023-05-05T02:34:17.875Z,1004.7
2023-05-05T02:39:25.898Z,1004.7
2023-05-05T02:44:25.818Z,1004.7
2023-05-05T02:49:27.189Z,1004.7
2023-05-05T02:54:24.304Z,1004.7
2023-05-05T02:59:26.588Z,1004.7
2023-05-05T03:04:23.826Z,1004.7
2023-05-05T03:09:21.816Z,1004.7
2023-05-05T03:14:21.995Z,1004.7
2023-05-05T03:19:22.380Z,1004.7
2023-05-05T03:24:10.244Z,1004.5
2023-05-05T03:29:10.220Z,1004.5
2023-05-05T03:34:09.310Z,1004.6
2023-05-05T03:39:09.515Z,1004.7
2023-05-05T03:44:07.005Z,1004.7
2023-05-05T03:49:06.693Z,1004.7
2023-05-05T03:54:06.922Z,1004.7
2023-05-05T03:59:06.516Z,1004.7
2023-05-05T04:04:06.330Z,1004.7
2023-05-05T04:09:05.070Z,1004.7
2023-05-05T04:14:05.024Z,1004.8
2023-05-05T04:19:05.493Z,1004.8
2023-05-05T04:24:03.284Z,1004.9
2023-05-05T04:29:03.765Z,1005
2023-05-05T04:34:03.051Z,1004.9
2023-05-05T04:39:02.580Z,1004.9
2023-05-05T04:44:02.266Z,1005
2023-05-05T04:49:01.951Z,1005
2023-05-05T04:54:01.972Z,1005
2023-05-05T04:59:01.627Z,1005.1
2023-05-05T05:04:00.217Z,1005
2023-05-05T05:08:59.800Z,1005.1
2023-05-05T05:13:59.172Z,1005.1
2023-05-05T05:19:00.915Z,1005.2
2023-05-05T05:23:58.310Z,1005.2
2023-05-05T05:28:57.802Z,1005.2
2023-05-05T05:33:57.871Z,1005.2
2023-05-05T05:38:57.806Z,1005.2
2023-05-05T05:43:58.437Z,1005.2
2023-05-05T05:48:54.892Z,1005.2
2023-05-05T05:53:55.428Z,1005.3
2023-05-05T05:58:54.247Z,1005.4
2023-05-05T06:00:44.801Z,1005.4
2023-05-05T06:05:26.757Z,1005.5
2023-05-05T06:15:28.112Z,1005.5
2023-05-05T06:20:25.263Z,1005.4
2023-05-05T06:25:25.082Z,1005.5
2023-05-05T06:30:27.261Z,1005.5
2023-05-05T06:35:24.142Z,1005.6
2023-05-05T06:40:24.010Z,1005.9
2023-05-05T06:45:25.903Z,1005.9
2023-05-05T06:50:22.290Z,1005.9
2023-05-05T06:55:22.261Z,1006
2023-05-05T06:59:17.406Z,1005.9
2023-05-05T07:04:25.538Z,1005.7
2023-05-05T07:09:27.901Z,1005.6
2023-05-05T07:14:26.035Z,1005.5
2023-05-05T07:19:24.898Z,1005.5
2023-05-05T07:24:25.135Z,1005.5
2023-05-05T07:29:25.507Z,1005.5
2023-05-05T07:34:23.737Z,1005.6
2023-05-05T07:39:22.935Z,1005.6
2023-05-05T07:44:23.408Z,1006.1
2023-05-05T07:49:22.396Z,1005.9
2023-05-05T07:54:22.921Z,1006.1
2023-05-05T07:59:22.525Z,1005.3
2023-05-05T08:04:24.937Z,1005.8
2023-05-05T08:09:21.365Z,1005.4
2023-05-05T08:14:21.184Z,1005.3
2023-05-05T08:19:36.127Z,1005.3
2023-05-05T08:24:09.729Z,1004.6
2023-05-05T08:29:09.915Z,1005.3
2023-05-05T08:34:09.640Z,1005.4
2023-05-05T08:39:08.954Z,1005.5
2023-05-05T08:44:08.326Z,1005.6
2023-05-05T08:49:08.473Z,1005.6
2023-05-05T08:54:07.998Z,1005.6
2023-05-05T08:59:06.009Z,1005.7
2023-05-05T09:00:54.631Z,1005.7
2023-05-05T09:05:27.018Z,1005.8
2023-05-05T09:10:25.994Z,1005.9
2023-05-05T09:20:24.576Z,1005.9
2023-05-05T09:25:25.007Z,1005.9
2023-05-05T09:30:24.141Z,1005.8
2023-05-05T09:35:25.352Z,1005.7
2023-05-05T09:40:22.248Z,1005.7
2023-05-05T09:45:21.548Z,1005.7
2023-05-05T09:50:21.247Z,1005.5
2023-05-05T09:55:20.680Z,1005.6
2023-05-05T09:59:41.565Z,1005.5
2023-05-05T10:04:41.133Z,1005.6
2023-05-05T10:09:41.360Z,1005.6
2023-05-05T10:14:41.251Z,1005.6
2023-05-05T10:19:40.517Z,1005.6
2023-05-05T10:24:40.230Z,1005.5
2023-05-05T10:29:40.596Z,1005.5
2023-05-05T10:34:40.678Z,1005.4
2023-05-05T10:39:38.527Z,1005.2
2023-05-05T10:44:38.573Z,1005.1
2023-05-05T10:49:37.651Z,1005.1
2023-05-05T10:54:38.229Z,1005.1
2023-05-05T10:59:30.101Z,1005.1
2023-05-05T11:04:29.534Z,1005.2
2023-05-05T11:09:29.388Z,1005.1
2023-05-05T11:14:28.710Z,1005.1
2023-05-05T11:19:29.747Z,1005
2023-05-05T11:24:26.407Z,1004.8
2023-05-05T11:29:26.571Z,1004.8
2023-05-05T11:34:25.752Z,1004.6
2023-05-05T11:39:25.978Z,999.1
2023-05-05T11:44:23.507Z,1004.2
2023-05-05T11:49:23.140Z,996.6
2023-05-05T11:54:22.547Z,1004.1
2023-05-05T11:59:10.082Z,1004
2023-05-05T12:04:10.577Z,1004.1
2023-05-05T12:09:09.275Z,1004
2023-05-05T12:14:09.462Z,1004
2023-05-05T12:19:09.714Z,1004
2023-05-05T12:24:06.973Z,1003.8
2023-05-05T12:29:06.936Z,1004
2023-05-05T12:34:07.862Z,1003.8
2023-05-05T12:39:07.026Z,1003.9
2023-05-05T12:44:06.779Z,1003.9
2023-05-05T12:49:10.321Z,1003.8
2023-05-05T12:54:05.778Z,1003.9
2023-05-05T12:59:05.274Z,1003.8
2023-05-05T13:04:06.443Z,1003.6
2023-05-05T13:09:03.051Z,1003.5
2023-05-05T13:14:03.048Z,1003.5
2023-05-05T13:19:02.475Z,1003.5
2023-05-05T13:24:18.860Z,1003.5
2023-05-05T13:28:59.435Z,1003.5
2023-05-05T13:33:58.804Z,1003.5
2023-05-05T13:38:58.040Z,1003.4
2023-05-05T13:43:57.406Z,1003.4
2023-05-05T13:48:57.523Z,1002.8
2023-05-05T13:53:57.746Z,1002
2023-05-05T13:58:58.883Z,1001.8
2023-05-05T14:01:01.948Z,1002.2
2023-05-05T14:05:26.313Z,1001.4
2023-05-05T14:10:27.158Z,1001.5
2023-05-05T14:15:26.908Z,1001.4
2023-05-05T14:20:26.139Z,1001.4
2023-05-05T14:25:26.258Z,1002.5
2023-05-05T14:30:26.083Z,1002
2023-05-05T14:35:27.865Z,1001.8
2023-05-05T14:40:27.321Z,1002
2023-05-05T14:45:24.028Z,1002.2
2023-05-05T14:50:25.439Z,1002.3
2023-05-05T14:55:22.249Z,1001.6
2023-05-05T14:59:24.889Z,1001
2023-05-05T15:04:24.932Z,1001.6
2023-05-05T15:09:22.888Z,1002
2023-05-05T15:14:22.221Z,1002
2023-05-05T15:19:22.091Z,1002.6
2023-05-05T15:24:20.980Z,1003.2
2023-05-05T15:29:12.054Z,1003.4
2023-05-05T15:34:09.583Z,1003.7
2023-05-05T15:39:10.369Z,1004
2023-05-05T15:44:06.504Z,1004.2
2023-05-05T15:49:06.155Z,1004.7
2023-05-05T15:54:05.183Z,1004.8
2023-05-05T15:59:57.140Z,1004.6
2023-05-05T16:04:04.481Z,1004.8
2023-05-05T16:09:04.195Z,1004.6
2023-05-05T16:14:05.225Z,1004.9
2023-05-05T16:19:02.854Z,1004.8
2023-05-05T16:24:02.341Z,1004.6
2023-05-05T16:29:01.797Z,1003.9
2023-05-05T16:34:01.631Z,1004.6
2023-05-05T16:38:59.211Z,1004
2023-05-05T16:43:58.827Z,1003.3
2023-05-05T16:48:58.933Z,1003.3
2023-05-05T16:53:59.737Z,1003
2023-05-05T16:58:57.787Z,1003.9
2023-05-05T17:03:57.733Z,1004.2
2023-05-05T17:08:57.336Z,1004.1
2023-05-05T17:13:56.971Z,1004
2023-05-05T17:18:54.364Z,1003.9
2023-05-05T17:23:54.142Z,1004.2
2023-05-05T17:28:54.605Z,1004.4
2023-05-05T17:33:55.593Z,1004.4
2023-05-05T17:38:52.116Z,1004.7
2023-05-05T17:43:52.402Z,1004.8
2023-05-05T17:48:51.377Z,1004.8
2023-05-05T17:53:51.066Z,1004.9
2023-05-05T17:58:48.465Z,1005
2023-05-05T18:00:35.413Z,1004.7
2023-05-05T18:05:10.199Z,1004.7
2023-05-05T18:10:08.972Z,1004.6
2023-05-05T18:15:08.745Z,1004.8
2023-05-05T18:20:10.814Z,998.8
2023-05-05T18:25:08.421Z,1003.2
2023-05-05T18:30:07.381Z,1004.7
2023-05-05T18:35:08.766Z,1004.7
2023-05-05T18:40:05.903Z,1004.8
2023-05-05T18:45:05.037Z,1004.7
2023-05-05T18:50:04.506Z,1004.7
2023-05-05T18:55:03.954Z,1004.9
2023-05-05T18:59:29.873Z,1004.8
2023-05-05T19:04:44.131Z,1005.2
2023-05-05T19:09:29.515Z,1005
2023-05-05T19:14:30.262Z,1005
2023-05-05T19:19:26.688Z,1005
2023-05-05T19:24:26.738Z,1005
2023-05-05T19:29:26.261Z,1004.8
2023-05-05T19:34:25.727Z,1004.9
2023-05-05T19:39:26.021Z,1005.1
2023-05-05T19:44:22.889Z,1005.2
2023-05-05T19:49:23.075Z,1005.4
2023-05-05T19:54:22.367Z,1005.6
2023-05-05T19:59:10.177Z,1005.6
2023-05-05T20:04:08.663Z,1005.7
2023-05-05T20:09:08.549Z,998.2
2023-05-05T20:14:07.834Z,1002.6
2023-05-05T20:19:06.286Z,997.2
2023-05-05T20:24:05.695Z,992.9
2023-05-05T20:29:06.936Z,996.4
2023-05-05T20:34:04.519Z,1001.2
2023-05-05T20:39:04.044Z,1000.4
2023-05-05T20:44:03.703Z,998.6
2023-05-05T20:49:04.450Z,995.9
2023-05-05T20:54:02.884Z,993.7
2023-05-05T20:59:03.769Z,994.7
2023-05-05T21:04:00.221Z,998.5
2023-05-05T21:09:00.039Z,998.5
2023-05-05T21:13:59.281Z,997.2
2023-05-05T21:18:59.298Z,998.1
2023-05-05T21:23:56.918Z,998
2023-05-05T21:28:56.683Z,998.1
2023-05-05T21:33:56.555Z,998.3
2023-05-05T21:38:58.328Z,999.1
2023-05-05T21:43:55.595Z,999
2023-05-05T21:48:55.214Z,997.8
2023-05-05T21:53:55.353Z,1000
2023-05-05T21:58:55.505Z,999.8
2023-05-05T22:00:43.171Z,1000.4
2023-05-05T22:05:17.431Z,1000.5
2023-05-05T22:10:26.978Z,1000.5
2023-05-05T22:15:32.951Z,1003.3
2023-05-05T22:20:25.755Z,1005.7
2023-05-05T22:25:25.038Z,1005.9
2023-05-05T22:30:25.372Z,1005.8
2023-05-05T22:35:23.430Z,1005.9
2023-05-05T22:40:24.190Z,1005.9
2023-05-05T22:45:23.527Z,1005.9
2023-05-05T22:50:22.561Z,1005.8
2023-05-05T22:55:23.126Z,1005.9
2023-05-05T22:59:17.831Z,1005.8
2023-05-05T23:04:17.533Z,1005.9
2023-05-05T23:09:25.040Z,1005.9
2023-05-05T23:14:24.530Z,1005.9
2023-05-05T23:19:24.638Z,1005.9
2023-05-05T23:24:23.883Z,1005.9
2023-05-05T23:29:23.734Z,1005.9
2023-05-05T23:34:24.237Z,1005.9
2023-05-05T23:39:22.423Z,1005.9
2023-05-05T23:44:22.382Z,1005.9
2023-05-05T23:49:22.381Z,1005.9
2023-05-05T23:54:21.428Z,1005.9
2023-05-05T23:59:21.267Z,1005.9
